createdAt,value
2022-09-26T00:01:36.540Z,100405.53
2022-09-26T00:04:07.994Z,100403.03
2022-09-26T00:06:36.384Z,100405.44
2022-09-26T00:09:06.527Z,100398.03
2022-09-26T00:11:35.869Z,100389.66
2022-09-26T00:14:07.478Z,100385.56
2022-09-26T00:16:36.641Z,100383.06
2022-09-26T00:19:05.222Z,100386.69
2022-09-26T00:21:34.118Z,100389.38
2022-09-26T00:24:04.240Z,100377.03
2022-09-26T00:26:35.954Z,100378.00
2022-09-26T00:29:07.469Z,100378.78
2022-09-26T00:31:37.939Z,100375.66
2022-09-26T00:34:06.530Z,100377.88
2022-09-26T00:36:38.339Z,100374.88
2022-09-26T00:39:08.599Z,100380.81
2022-09-26T00:41:38.764Z,100372.78
2022-09-26T00:44:36.444Z,100372.38
2022-09-26T00:47:06.371Z,100375.53
2022-09-26T00:49:37.293Z,100377.28
2022-09-26T00:52:10.144Z,100377.13
2022-09-26T00:54:42.042Z,100384.25
2022-09-26T00:57:17.096Z,100379.34
2022-09-26T00:59:50.429Z,100381.72
2022-09-26T01:02:19.037Z,100368.59
2022-09-26T01:04:49.376Z,100375.09
2022-09-26T01:07:22.102Z,100366.88
2022-09-26T01:09:50.548Z,100367.97
2022-09-26T01:12:22.249Z,100376.34
2022-09-26T01:14:53.092Z,100369.19
2022-09-26T01:17:22.754Z,100360.03
2022-09-26T01:20:04.251Z,100352.38
2022-09-26T01:23:11.148Z,100348.66
2022-09-26T01:26:10.667Z,100352.16
2022-09-26T01:28:59.124Z,100354.34
2022-09-26T01:31:38.688Z,100350.13
2022-09-26T01:34:14.271Z,100340.13
2022-09-26T01:37:00.287Z,100351.03
2022-09-26T01:39:36.248Z,100351.53
2022-09-26T01:42:15.787Z,100345.06
2022-09-26T01:44:50.390Z,100342.03
2022-09-26T01:47:27.712Z,100339.97
2022-09-26T01:50:00.239Z,100347.91
2022-09-26T01:52:38.236Z,100346.34
2022-09-26T01:55:12.412Z,100351.66
2022-09-26T01:57:44.073Z,100349.44
2022-09-26T02:00:13.735Z,100350.06
2022-09-26T02:02:45.353Z,100342.75
2022-09-26T02:05:19.895Z,100349.38
2022-09-26T02:07:53.946Z,100334.94
2022-09-26T02:10:27.698Z,100335.19
2022-09-26T02:13:04.273Z,100337.53
2022-09-26T02:15:36.050Z,100331.69
2022-09-26T02:18:14.079Z,100330.59
2022-09-26T02:20:49.709Z,100327.75
2022-09-26T02:23:18.175Z,100327.41
2022-09-26T02:25:46.367Z,100317.28
2022-09-26T02:28:14.969Z,100319.19
2022-09-26T02:30:45.807Z,100322.63
2022-09-26T02:33:15.884Z,100317.03
2022-09-26T02:35:57.509Z,100318.75
2022-09-26T02:38:27.732Z,100313.25
2022-09-26T02:41:01.580Z,100322.09
2022-09-26T02:43:45.778Z,100316.25
2022-09-26T02:46:39.854Z,100314.16
2022-09-26T02:49:29.902Z,100312.91
2022-09-26T02:52:16.997Z,100318.66
2022-09-26T02:54:58.070Z,100314.38
2022-09-26T02:57:36.846Z,100312.81
2022-09-26T03:00:10.350Z,100320.91
2022-09-26T03:02:44.251Z,100320.63
2022-09-26T03:05:16.897Z,100320.44
2022-09-26T03:07:48.349Z,100308.69
2022-09-26T03:10:18.022Z,100318.41
2022-09-26T03:12:46.588Z,100306.91
2022-09-26T03:15:16.214Z,100318.16
2022-09-26T03:17:48.646Z,100311.03
2022-09-26T03:20:20.277Z,100304.41
2022-09-26T03:22:48.903Z,100302.38
2022-09-26T03:25:21.151Z,100297.00
2022-09-26T03:27:50.088Z,100298.94
2022-09-26T03:30:21.228Z,100294.16
2022-09-26T03:32:49.705Z,100289.72
2022-09-26T03:35:19.224Z,100299.38
2022-09-26T03:37:47.942Z,100292.88
2022-09-26T03:40:16.575Z,100297.13
2022-09-26T03:42:46.456Z,100294.34
2022-09-26T03:45:14.532Z,100299.19
2022-09-26T03:47:43.071Z,100286.41
2022-09-26T03:50:11.651Z,100283.59
2022-09-26T03:52:41.166Z,100283.41
2022-09-26T03:55:09.431Z,100292.75
2022-09-26T03:57:38.031Z,100291.16
2022-09-26T04:00:08.228Z,100289.44
2022-09-26T04:02:36.484Z,100281.06
2022-09-26T04:05:04.982Z,100289.56
2022-09-26T04:07:33.398Z,100268.91
2022-09-26T04:10:03.028Z,100281.84
2022-09-26T04:12:31.210Z,100278.22
2022-09-26T04:14:59.329Z,100280.09
2022-09-26T04:17:27.416Z,100272.03
2022-09-26T04:19:56.540Z,100273.47
2022-09-26T04:22:25.297Z,100271.09
2022-09-26T04:24:53.411Z,100271.09
2022-09-26T04:27:22.988Z,100277.38
2022-09-26T04:29:51.240Z,100284.16
2022-09-26T04:32:19.804Z,100281.97
2022-09-26T04:34:47.879Z,100276.72
2022-09-26T04:37:16.008Z,100277.31
2022-09-26T04:39:44.069Z,100287.53
2022-09-26T04:42:12.157Z,100288.28
2022-09-26T04:44:41.661Z,100282.84
2022-09-26T04:47:11.398Z,100280.63
2022-09-26T04:49:39.508Z,100278.06
2022-09-26T04:52:07.647Z,100277.69
2022-09-26T04:54:38.471Z,100274.34
2022-09-26T04:57:06.797Z,100266.34
2022-09-26T04:59:34.857Z,100276.34
2022-09-26T05:02:08.625Z,100274.84
2022-09-26T05:04:36.871Z,100274.50
2022-09-26T05:07:05.064Z,100272.91
2022-09-26T05:09:36.094Z,100270.59
2022-09-26T05:12:04.763Z,100277.44
2022-09-26T05:14:35.471Z,100266.25
2022-09-26T05:17:06.501Z,100250.97
2022-09-26T05:19:34.917Z,100252.34
2022-09-26T05:22:03.049Z,100256.88
2022-09-26T05:24:48.476Z,100255.66
2022-09-26T05:27:18.723Z,100254.28
2022-09-26T05:29:46.812Z,100250.81
2022-09-26T05:32:18.149Z,100250.66
2022-09-26T05:34:49.039Z,100249.59
2022-09-26T05:37:17.189Z,100243.91
2022-09-26T05:40:02.864Z,100251.44
2022-09-26T05:42:31.148Z,100253.88
2022-09-26T05:45:03.312Z,100253.16
2022-09-26T05:47:36.403Z,100252.25
2022-09-26T05:50:05.156Z,100257.50
2022-09-26T05:52:33.303Z,100267.75
2022-09-26T05:55:01.608Z,100259.56
2022-09-26T05:57:29.696Z,100258.28
2022-09-26T05:59:58.164Z,100267.31
2022-09-26T06:02:26.429Z,100263.34
2022-09-26T06:04:56.549Z,100276.25
2022-09-26T06:07:24.757Z,100267.97
2022-09-26T06:09:52.906Z,100269.16
2022-09-26T06:12:21.342Z,100263.56
2022-09-26T06:14:49.492Z,100268.47
2022-09-26T06:17:17.581Z,100268.44
2022-09-26T06:19:45.708Z,100271.06
2022-09-26T06:22:15.266Z,100271.22
2022-09-26T06:24:43.561Z,100266.16
2022-09-26T06:27:11.638Z,100264.19
2022-09-26T06:29:39.731Z,100257.19
2022-09-26T06:32:07.944Z,100255.06
2022-09-26T06:34:36.166Z,100270.03
2022-09-26T06:37:04.330Z,100265.34
2022-09-26T06:39:37.093Z,100263.75
2022-09-26T06:42:07.520Z,100264.38
2022-09-26T06:44:35.970Z,100256.31
2022-09-26T06:47:05.472Z,100259.47
2022-09-26T06:49:35.039Z,100252.41
2022-09-26T06:52:03.589Z,100256.28
2022-09-26T06:54:33.579Z,100259.19
2022-09-26T06:57:01.675Z,100246.91
2022-09-26T06:59:29.966Z,100246.13
2022-09-26T07:01:58.207Z,100239.47
2022-09-26T07:04:27.595Z,100244.63
2022-09-26T07:06:58.316Z,100249.41
2022-09-26T07:09:26.940Z,100255.44
2022-09-26T07:12:13.982Z,100246.59
2022-09-26T07:14:43.222Z,100250.38
2022-09-26T07:17:16.786Z,100245.75
2022-09-26T07:19:46.793Z,100240.47
2022-09-26T07:22:16.667Z,100238.00
2022-09-26T07:24:50.358Z,100232.94
2022-09-26T07:27:19.895Z,100236.22
2022-09-26T07:29:49.016Z,100233.47
2022-09-26T07:32:17.402Z,100237.03
2022-09-26T07:34:45.620Z,100221.22
2022-09-26T07:37:13.876Z,100230.38
2022-09-26T07:39:41.949Z,100231.13
2022-09-26T07:42:10.233Z,100224.56
2022-09-26T07:45:17.408Z,100220.09
2022-09-26T07:47:46.050Z,100224.38
2022-09-26T07:50:15.226Z,100215.94
2022-09-26T07:52:45.800Z,100213.97
2022-09-26T07:55:16.512Z,100227.19
2022-09-26T07:57:44.952Z,100227.09
2022-09-26T08:00:18.906Z,100226.09
2022-09-26T08:02:47.670Z,100227.97
2022-09-26T08:05:20.108Z,100223.00
2022-09-26T08:07:49.936Z,100213.78
2022-09-26T08:10:21.275Z,100212.56
2022-09-26T08:12:50.286Z,100197.75
2022-09-26T08:15:20.424Z,100194.75
2022-09-26T08:17:48.767Z,100190.81
2022-09-26T08:20:17.143Z,100191.94
2022-09-26T08:22:45.499Z,100185.41
2022-09-26T08:25:13.585Z,100183.88
2022-09-26T08:27:43.597Z,100188.09
2022-09-26T08:30:12.406Z,100190.06
2022-09-26T08:32:42.468Z,100192.44
2022-09-26T08:35:15.140Z,100181.94
2022-09-26T08:37:43.279Z,100186.16
2022-09-26T08:40:12.358Z,100177.00
2022-09-26T08:42:52.212Z,100174.69
2022-09-26T08:45:48.126Z,100179.28
2022-09-26T08:48:31.285Z,100184.63
2022-09-26T08:51:06.375Z,100190.09
2022-09-26T08:53:41.935Z,100196.03
2022-09-26T08:56:21.479Z,100176.47
2022-09-26T08:58:54.035Z,100165.16
2022-09-26T09:01:29.258Z,100161.69
2022-09-26T09:04:05.378Z,100175.53
2022-09-26T09:06:34.730Z,100179.78
2022-09-26T09:09:02.968Z,100182.75
2022-09-26T09:11:58.355Z,100176.13
2022-09-26T09:14:57.957Z,100170.09
2022-09-26T09:17:40.495Z,100169.78
2022-09-26T09:20:17.643Z,100171.03
2022-09-26T09:23:00.717Z,100172.72
2022-09-26T09:25:33.445Z,100166.38
2022-09-26T09:28:15.451Z,100167.66
2022-09-26T09:30:46.604Z,100162.66
2022-09-26T09:33:20.145Z,100162.03
2022-09-26T09:35:53.837Z,100153.53
2022-09-26T09:38:24.798Z,100167.66
2022-09-26T09:41:01.902Z,100162.66
2022-09-26T09:43:35.975Z,100152.59
2022-09-26T09:46:07.428Z,100148.75
2022-09-26T09:48:35.649Z,100139.84
2022-09-26T09:51:39.281Z,100137.41
2022-09-26T09:54:25.332Z,100124.06
2022-09-26T09:57:22.474Z,100119.03
2022-09-26T10:00:10.166Z,100106.63
2022-09-26T10:02:47.167Z,100113.22
2022-09-26T10:05:25.934Z,100115.94
2022-09-26T10:07:59.258Z,100110.50
2022-09-26T10:10:35.934Z,100116.72
2022-09-26T10:13:06.229Z,100117.34
2022-09-26T10:15:36.967Z,100118.94
2022-09-26T10:18:23.978Z,100114.31
2022-09-26T10:20:55.499Z,100106.91
2022-09-26T10:23:31.547Z,100109.69
2022-09-26T10:26:03.745Z,100113.28
2022-09-26T10:28:37.904Z,100104.34
2022-09-26T10:31:10.040Z,100097.38
2022-09-26T10:33:45.192Z,100104.72
2022-09-26T10:36:23.080Z,100099.66
2022-09-26T10:39:15.080Z,100098.91
2022-09-26T10:41:45.364Z,100076.69
2022-09-26T10:44:25.175Z,100074.00
2022-09-26T10:46:58.089Z,100074.41
2022-09-26T10:49:32.320Z,100080.25
2022-09-26T10:52:08.432Z,100089.59
2022-09-26T10:54:45.754Z,100094.16
2022-09-26T10:57:28.329Z,100086.41
2022-09-26T10:59:59.513Z,100081.38
2022-09-26T11:02:29.446Z,100077.88
2022-09-26T11:05:19.793Z,100079.50
2022-09-26T11:07:49.649Z,100075.50
2022-09-26T11:10:25.818Z,100069.34
2022-09-26T11:13:00.014Z,100082.25
2022-09-26T11:15:29.952Z,100078.88
2022-09-26T11:17:58.981Z,100081.19
2022-09-26T11:20:46.799Z,100075.75
2022-09-26T11:23:27.386Z,100080.72
2022-09-26T11:26:03.838Z,100076.41
2022-09-26T11:28:38.356Z,100070.47
2022-09-26T11:31:17.746Z,100056.09
2022-09-26T11:33:46.071Z,100067.00
2022-09-26T11:36:36.102Z,100047.16
2022-09-26T11:39:16.387Z,100032.06
2022-09-26T11:41:58.713Z,100033.63
2022-09-26T11:44:47.081Z,100028.53
2022-09-26T11:47:43.623Z,100029.25
2022-09-26T11:50:30.359Z,100031.97
2022-09-26T11:53:15.266Z,100032.66
2022-09-26T11:56:02.464Z,100025.25
2022-09-26T11:58:43.571Z,100029.56
2022-09-26T12:01:27.460Z,100029.56
2022-09-26T12:04:16.008Z,100048.22
2022-09-26T12:06:55.324Z,100043.97
2022-09-26T12:09:41.561Z,100041.28
2022-09-26T12:12:18.974Z,100036.69
2022-09-26T12:15:03.391Z,100016.88
2022-09-26T12:17:48.295Z,100023.50
2022-09-26T12:20:27.962Z,100022.72
2022-09-26T12:23:01.517Z,100021.59
2022-09-26T12:25:38.874Z,100021.66
2022-09-26T12:28:20.391Z,100015.09
2022-09-26T12:31:00.621Z,100009.63
2022-09-26T12:33:47.435Z,100001.44
2022-09-26T12:36:25.173Z,99990.16
2022-09-26T12:39:10.109Z,99989.00
2022-09-26T12:42:16.486Z,99992.88
2022-09-26T12:45:01.006Z,99990.16
2022-09-26T12:47:49.007Z,99994.06
2022-09-26T12:50:24.991Z,99983.16
2022-09-26T12:53:19.390Z,99989.41
2022-09-26T12:56:01.663Z,99989.38
2022-09-26T12:58:50.049Z,99991.72
2022-09-26T13:01:38.384Z,99991.69
2022-09-26T13:04:32.041Z,99983.13
2022-09-26T13:07:19.251Z,99980.75
2022-09-26T13:10:22.081Z,99979.16
2022-09-26T13:13:24.847Z,99975.59
2022-09-26T13:16:08.184Z,99976.03
2022-09-26T13:18:45.103Z,99982.66
2022-09-26T13:21:19.874Z,99978.03
2022-09-26T13:23:55.856Z,99970.56
2022-09-26T13:26:29.602Z,99971.38
2022-09-26T13:29:17.133Z,99966.38
2022-09-26T13:31:49.268Z,99965.91
2022-09-26T13:34:22.820Z,99969.09
2022-09-26T13:36:53.546Z,99970.22
2022-09-26T13:39:31.346Z,99961.31
2022-09-26T13:42:08.161Z,99969.09
2022-09-26T13:44:53.363Z,99963.59
2022-09-26T13:47:34.629Z,99958.50
2022-09-26T13:50:18.633Z,99954.94
2022-09-26T13:53:00.920Z,99951.47
2022-09-26T13:55:30.089Z,99953.38
2022-09-26T13:58:08.124Z,99952.59
2022-09-26T14:00:49.138Z,99941.28
2022-09-26T14:03:42.750Z,99935.00
2022-09-26T14:06:30.946Z,99935.03
2022-09-26T14:09:24.250Z,99934.25
2022-09-26T14:12:35.163Z,99930.34
2022-09-26T14:15:28.466Z,99936.19
2022-09-26T14:18:18.911Z,99935.41
2022-09-26T14:21:04.448Z,99938.41
2022-09-26T14:23:39.157Z,99935.69
2022-09-26T14:26:10.450Z,99938.47
2022-09-26T14:28:39.690Z,99933.06
2022-09-26T14:31:42.966Z,99933.72
2022-09-26T14:34:22.977Z,99930.63
2022-09-26T14:36:53.388Z,99930.97
2022-09-26T14:39:33.525Z,99932.97
2022-09-26T14:42:10.699Z,99911.28
2022-09-26T14:44:40.711Z,99912.69
2022-09-26T14:47:17.427Z,99902.22
2022-09-26T14:49:55.653Z,99903.38
2022-09-26T14:52:25.699Z,99902.56
2022-09-26T14:55:01.344Z,99907.59
2022-09-26T14:57:32.143Z,99913.41
2022-09-26T15:00:02.162Z,99914.09
2022-09-26T15:02:39.493Z,99903.19
2022-09-26T15:05:24.233Z,99893.81
2022-09-26T15:07:54.610Z,99894.63
2022-09-26T15:10:38.615Z,99899.25
2022-09-26T15:13:19.722Z,99916.00
2022-09-26T15:15:53.848Z,99915.59
2022-09-26T15:18:34.784Z,99919.84
2022-09-26T15:21:11.577Z,99922.56
2022-09-26T15:23:49.693Z,99928.34
2022-09-26T15:26:22.196Z,99922.47
2022-09-26T15:28:52.092Z,99923.63
2022-09-26T15:31:26.628Z,99910.38
2022-09-26T15:34:01.653Z,99897.91
2022-09-26T15:36:35.495Z,99888.19
2022-09-26T15:39:27.078Z,99890.53
2022-09-26T15:42:12.746Z,99895.94
2022-09-26T15:44:48.179Z,99897.09
2022-09-26T15:47:40.347Z,99902.13
2022-09-26T15:50:14.470Z,99891.19
2022-09-26T15:52:51.683Z,99898.19
2022-09-26T15:55:23.893Z,99919.09
2022-09-26T15:57:54.577Z,99906.63
2022-09-26T16:00:22.794Z,99905.00
2022-09-26T16:02:51.252Z,99902.63
2022-09-26T16:05:23.160Z,99893.66
2022-09-26T16:07:53.330Z,99892.81
2022-09-26T16:10:25.065Z,99895.50
2022-09-26T16:12:53.672Z,99892.34
2022-09-26T16:15:27.808Z,99890.84
2022-09-26T16:17:57.570Z,99896.22
2022-09-26T16:20:29.700Z,99887.31
2022-09-26T16:23:04.104Z,99897.78
2022-09-26T16:25:36.189Z,99899.81
2022-09-26T16:28:23.463Z,99897.97
2022-09-26T16:31:14.535Z,99894.88
2022-09-26T16:33:42.761Z,99894.50
2022-09-26T16:36:20.442Z,99895.69
2022-09-26T16:38:54.083Z,99885.59
2022-09-26T16:42:00.098Z,99884.06
2022-09-26T16:44:28.809Z,99877.06
2022-09-26T16:47:03.271Z,99892.16
2022-09-26T16:49:40.098Z,99886.72
2022-09-26T16:52:34.456Z,99901.44
2022-09-26T16:55:04.034Z,99900.66
2022-09-26T16:57:34.415Z,99899.03
2022-09-26T17:00:23.259Z,99894.34
2022-09-26T17:02:51.544Z,99888.44
2022-09-26T17:05:20.982Z,99888.03
2022-09-26T17:07:51.336Z,99888.41
2022-09-26T17:10:21.348Z,99886.75
2022-09-26T17:12:50.699Z,99896.09
2022-09-26T17:15:23.051Z,99886.03
2022-09-26T17:17:53.804Z,99893.09
2022-09-26T17:20:23.733Z,99893.19
2022-09-26T17:22:54.789Z,99900.50
2022-09-26T17:25:25.578Z,99897.84
2022-09-26T17:27:57.821Z,99897.00
2022-09-26T17:30:26.201Z,99897.78
2022-09-26T17:32:55.372Z,99891.59
2022-09-26T17:35:27.140Z,99896.47
2022-09-26T17:37:57.173Z,99890.56
2022-09-26T17:40:27.715Z,99888.59
2022-09-26T17:42:57.943Z,99883.16
2022-09-26T17:45:30.179Z,99886.22
2022-09-26T17:48:00.611Z,99884.22
2022-09-26T17:50:31.480Z,99883.94
2022-09-26T17:53:03.295Z,99884.47
2022-09-26T17:55:32.224Z,99873.72
2022-09-26T17:58:00.476Z,99867.84
2022-09-26T18:00:35.252Z,99858.84
2022-09-26T18:03:05.069Z,99852.22
2022-09-26T18:05:35.861Z,99860.38
2022-09-26T18:08:13.348Z,99868.13
2022-09-26T18:10:49.377Z,99863.09
2022-09-26T18:13:25.580Z,99861.13
2022-09-26T18:15:55.282Z,99878.59
2022-09-26T18:18:27.846Z,99869.59
2022-09-26T18:20:59.131Z,99867.25
2022-09-26T18:23:31.498Z,99861.47
2022-09-26T18:26:01.341Z,99861.50
2022-09-26T18:28:30.513Z,99851.50
2022-09-26T18:31:01.228Z,99845.66
2022-09-26T18:33:37.133Z,99847.34
2022-09-26T18:36:06.739Z,99851.19
2022-09-26T18:38:36.886Z,99862.84
2022-09-26T18:41:07.356Z,99856.59
2022-09-26T18:43:42.431Z,99859.00
2022-09-26T18:46:15.561Z,99857.47
2022-09-26T18:48:45.234Z,99854.28
2022-09-26T18:51:14.803Z,99848.41
2022-09-26T18:53:45.181Z,99841.00
2022-09-26T18:56:30.977Z,99842.50
2022-09-26T18:58:59.981Z,99842.50
2022-09-26T19:01:31.831Z,99833.25
2022-09-26T19:04:02.751Z,99837.22
2022-09-26T19:06:34.577Z,99825.22
2022-09-26T19:09:08.080Z,99809.63
2022-09-26T19:11:37.243Z,99809.25
2022-09-26T19:14:14.210Z,99803.06
2022-09-26T19:16:43.189Z,99794.19
2022-09-26T19:19:11.666Z,99794.88
2022-09-26T19:21:42.590Z,99798.75
2022-09-26T19:24:20.693Z,99792.16
2022-09-26T19:26:51.543Z,99794.84
2022-09-26T19:29:28.851Z,99789.50
2022-09-26T19:31:57.188Z,99791.47
2022-09-26T19:34:28.210Z,99788.06
2022-09-26T19:37:01.371Z,99787.66
2022-09-26T19:39:31.835Z,99771.78
2022-09-26T19:42:00.006Z,99773.38
2022-09-26T19:44:28.249Z,99766.81
2022-09-26T19:46:56.464Z,99763.72
2022-09-26T19:49:29.013Z,99759.88
2022-09-26T19:51:57.195Z,99750.66
2022-09-26T19:54:25.441Z,99749.84
2022-09-26T19:56:55.039Z,99736.25
2022-09-26T19:59:27.312Z,99744.78
2022-09-26T20:01:56.252Z,99749.75
2022-09-26T20:04:24.663Z,99746.25
2022-09-26T20:06:52.963Z,99748.78
2022-09-26T20:09:21.583Z,99743.25
2022-09-26T20:11:49.805Z,99741.56
2022-09-26T20:14:25.382Z,99739.03
2022-09-26T20:16:56.557Z,99739.75
2022-09-26T20:19:41.141Z,99741.91
2022-09-26T20:22:15.858Z,99744.13
2022-09-26T20:24:44.520Z,99735.97
2022-09-26T20:27:18.986Z,99734.38
2022-09-26T20:30:07.345Z,99735.53
2022-09-26T20:32:36.308Z,99734.69
2022-09-26T20:35:05.430Z,99734.69
2022-09-26T20:37:37.139Z,99736.16
2022-09-26T20:40:12.503Z,99732.63
2022-09-26T20:42:45.247Z,99724.44
2022-09-26T20:45:19.521Z,99726.63
2022-09-26T20:47:48.163Z,99717.69
2022-09-26T20:50:18.855Z,99713.81
2022-09-26T20:52:47.026Z,99709.94
2022-09-26T20:55:16.722Z,99702.22
2022-09-26T20:57:45.476Z,99710.72
2022-09-26T21:00:17.912Z,99697.16
2022-09-26T21:02:48.064Z,99694.81
2022-09-26T21:05:18.822Z,99687.03
2022-09-26T21:07:47.333Z,99692.50
2022-09-26T21:10:23.356Z,99688.63
2022-09-26T21:12:51.835Z,99675.13
2022-09-26T21:15:22.351Z,99678.44
2022-09-26T21:17:52.515Z,99676.38
2022-09-26T21:20:25.218Z,99669.19
2022-09-26T21:22:53.965Z,99657.59
2022-09-26T21:25:24.965Z,99659.16
2022-09-26T21:27:57.542Z,99653.66
2022-09-26T21:30:27.189Z,99660.22
2022-09-26T21:32:58.695Z,99650.56
2022-09-26T21:35:30.498Z,99640.09
2022-09-26T21:38:00.121Z,99647.94
2022-09-26T21:40:33.698Z,99644.00
2022-09-26T21:43:05.581Z,99638.13
2022-09-26T21:45:35.124Z,99639.63
2022-09-26T21:48:03.740Z,99646.13
2022-09-26T21:50:32.934Z,99644.13
2022-09-26T21:53:11.280Z,99648.72
2022-09-26T21:55:44.966Z,99642.47
2022-09-26T21:58:17.184Z,99633.13
2022-09-26T22:00:46.783Z,99630.03
2022-09-26T22:03:15.016Z,99624.16
2022-09-26T22:05:43.175Z,99624.53
2022-09-26T22:08:11.362Z,99612.94
2022-09-26T22:10:39.708Z,99619.88
2022-09-26T22:13:07.959Z,99609.75
2022-09-26T22:15:36.105Z,99613.59
2022-09-26T22:18:05.974Z,99616.56
2022-09-26T22:20:35.413Z,99615.38
2022-09-26T22:23:03.858Z,99608.78
2022-09-26T22:25:32.790Z,99611.78
2022-09-26T22:28:01.010Z,99604.81
2022-09-26T22:30:29.360Z,99601.28
2022-09-26T22:32:57.557Z,99607.06
2022-09-26T22:35:27.211Z,99602.75
2022-09-26T22:37:56.781Z,99610.78
2022-09-26T22:40:24.967Z,99608.91
2022-09-26T22:42:53.119Z,99610.41
2022-09-26T22:45:21.285Z,99598.38
2022-09-26T22:47:49.405Z,99591.81
2022-09-26T22:50:17.669Z,99594.50
2022-09-26T22:52:47.363Z,99589.09
2022-09-26T22:55:15.626Z,99588.31
2022-09-26T22:57:43.800Z,99584.00
2022-09-26T23:00:13.382Z,99580.53
2022-09-26T23:02:41.640Z,99584.38
2022-09-26T23:05:10.526Z,99582.25
2022-09-26T23:07:38.747Z,99579.28
2022-09-26T23:10:10.388Z,99575.78
2022-09-26T23:12:39.353Z,99577.25
2022-09-26T23:15:09.560Z,99583.03
2022-09-26T23:17:37.695Z,99580.69
2022-09-26T23:20:06.985Z,99579.53
2022-09-26T23:22:35.131Z,99570.75
2022-09-26T23:25:03.253Z,99564.84
2022-09-26T23:27:32.794Z,99561.47
2022-09-26T23:30:01.112Z,99555.03
2022-09-26T23:32:29.255Z,99555.56
2022-09-26T23:34:57.432Z,99551.34
2022-09-26T23:37:25.608Z,99535.53
2022-09-26T23:39:53.840Z,99530.50
2022-09-26T23:42:21.953Z,99529.72
2022-09-26T23:44:51.480Z,99521.66
2022-09-26T23:47:19.658Z,99506.22
2022-09-26T23:49:47.807Z,99501.56
2022-09-26T23:52:16.042Z,99502.69
2022-09-26T23:54:44.335Z,99491.44
2022-09-26T23:57:12.587Z,99498.72
2022-09-26T23:59:40.845Z,99495.16
